sensor_id;sensor_type;location;lat;lon;timestamp;pressure;altitude;pressure_sealevel;temperature;humidity
77235;BME280;66253;50.526;14.974;2024-01-06T00:00:25;98026.58;;;3.79;94.44
77235;BME280;66253;50.526;14.974;2024-01-06T00:02:54;98024.86;;;3.79;94.29
77235;BME280;66253;50.526;14.974;2024-01-06T00:05:22;98028.90;;;3.80;94.24
77235;BME280;66253;50.526;14.974;2024-01-06T00:07:50;98032.58;;;3.80;94.19
77235;BME280;66253;50.526;14.974;2024-01-06T00:10:19;98033.57;;;3.81;94.29
77235;BME280;66253;50.526;14.974;2024-01-06T00:12:47;98034.07;;;3.81;94.01
77235;BME280;66253;50.526;14.974;2024-01-06T00:15:15;98032.22;;;3.81;94.14
77235;BME280;66253;50.526;14.974;2024-01-06T00:17:43;98031.86;;;3.81;94.48
77235;BME280;66253;50.526;14.974;2024-01-06T00:20:13;98035.39;;;3.82;94.02
77235;BME280;66253;50.526;14.974;2024-01-06T00:22:41;98038.26;;;3.82;94.30
77235;BME280;66253;50.526;14.974;2024-01-06T00:25:09;98038.40;;;3.82;94.36
77235;BME280;66253;50.526;14.974;2024-01-06T00:27:38;98034.88;;;3.82;94.22
77235;BME280;66253;50.526;14.974;2024-01-06T00:30:07;98031.33;;;3.82;94.31
77235;BME280;66253;50.526;14.974;2024-01-06T00:32:36;98029.69;;;3.81;94.23
77235;BME280;66253;50.526;14.974;2024-01-06T00:35:05;98027.31;;;3.81;94.38
77235;BME280;66253;50.526;14.974;2024-01-06T00:37:33;98026.52;;;3.80;94.44
77235;BME280;66253;50.526;14.974;2024-01-06T00:40:02;98025.55;;;3.79;94.19
77235;BME280;66253;50.526;14.974;2024-01-06T00:42:31;98027.96;;;3.78;94.00
77235;BME280;66253;50.526;14.974;2024-01-06T00:44:59;98029.67;;;3.77;94.35
77235;BME280;66253;50.526;14.974;2024-01-06T00:47:27;98028.05;;;3.76;94.27
77235;BME280;66253;50.526;14.974;2024-01-06T00:49:55;98028.20;;;3.76;94.61
77235;BME280;66253;50.526;14.974;2024-01-06T00:52:24;98027.87;;;3.76;94.31
77235;BME280;66253;50.526;14.974;2024-01-06T00:54:52;98023.98;;;3.73;94.16
77235;BME280;66253;50.526;14.974;2024-01-06T00:57:20;98036.55;;;3.75;94.54
77235;BME280;66253;50.526;14.974;2024-01-06T00:59:48;98038.20;;;3.75;94.45
77235;BME280;66253;50.526;14.974;2024-01-06T01:02:16;98033.59;;;3.77;94.37
77235;BME280;66253;50.526;14.974;2024-01-06T01:04:49;98035.27;;;3.77;94.55
77235;BME280;66253;50.526;14.974;2024-01-06T01:07:17;98038.17;;;3.76;94.20
77235;BME280;66253;50.526;14.974;2024-01-06T01:09:46;98039.86;;;3.76;94.34
77235;BME280;66253;50.526;14.974;2024-01-06T01:12:14;98036.67;;;3.75;94.51
77235;BME280;66253;50.526;14.974;2024-01-06T01:14:42;98037.48;;;3.76;94.37
77235;BME280;66253;50.526;14.974;2024-01-06T01:17:11;98040.20;;;3.76;94.03
77235;BME280;66253;50.526;14.974;2024-01-06T01:19:39;98034.77;;;3.77;94.16
77235;BME280;66253;50.526;14.974;2024-01-06T01:22:07;98032.55;;;3.77;94.41
77235;BME280;66253;50.526;14.974;2024-01-06T01:24:35;98032.30;;;3.75;94.36
77235;BME280;66253;50.526;14.974;2024-01-06T01:27:04;98030.30;;;3.75;94.23
77235;BME280;66253;50.526;14.974;2024-01-06T01:29:32;98028.44;;;3.75;94.29
77235;BME280;66253;50.526;14.974;2024-01-06T01:32:00;98029.91;;;3.76;94.43
77235;BME280;66253;50.526;14.974;2024-01-06T01:34:29;98034.11;;;3.76;94.46
77235;BME280;66253;50.526;14.974;2024-01-06T01:36:57;98035.30;;;3.76;94.23
77235;BME280;66253;50.526;14.974;2024-01-06T01:39:25;98032.67;;;3.79;94.64
77235;BME280;66253;50.526;14.974;2024-01-06T01:41:54;98030.56;;;3.80;94.40
77235;BME280;66253;50.526;14.974;2024-01-06T01:44:22;98025.66;;;3.80;94.35
77235;BME280;66253;50.526;14.974;2024-01-06T01:46:50;98020.60;;;3.80;94.68
77235;BME280;66253;50.526;14.974;2024-01-06T01:49:20;98017.20;;;3.80;94.31
77235;BME280;66253;50.526;14.974;2024-01-06T01:51:50;98015.89;;;3.80;94.35
77235;BME280;66253;50.526;14.974;2024-01-06T01:54:18;98021.10;;;3.80;94.58
77235;BME280;66253;50.526;14.974;2024-01-06T01:56:46;98022.09;;;3.81;94.36
77235;BME280;66253;50.526;14.974;2024-01-06T01:59:15;98020.29;;;3.79;94.35
77235;BME280;66253;50.526;14.974;2024-01-06T02:01:45;98018.26;;;3.79;94.38
77235;BME280;66253;50.526;14.974;2024-01-06T02:04:14;98015.74;;;3.79;94.37
77235;BME280;66253;50.526;14.974;2024-01-06T02:06:43;98016.11;;;3.79;94.35
77235;BME280;66253;50.526;14.974;2024-01-06T02:09:11;98012.44;;;3.78;94.53
77235;BME280;66253;50.526;14.974;2024-01-06T02:11:39;98014.71;;;3.76;94.33
77235;BME280;66253;50.526;14.974;2024-01-06T02:14:07;98013.05;;;3.75;94.69
77235;BME280;66253;50.526;14.974;2024-01-06T02:16:36;98017.48;;;3.74;94.57
77235;BME280;66253;50.526;14.974;2024-01-06T02:19:08;98017.19;;;3.73;94.43
77235;BME280;66253;50.526;14.974;2024-01-06T02:21:41;98018.27;;;3.72;94.60
77235;BME280;66253;50.526;14.974;2024-01-06T02:24:09;98018.80;;;3.72;94.46
77235;BME280;66253;50.526;14.974;2024-01-06T02:26:38;98021.52;;;3.71;94.53
77235;BME280;66253;50.526;14.974;2024-01-06T02:29:06;98027.08;;;3.72;94.15
77235;BME280;66253;50.526;14.974;2024-01-06T02:31:34;98024.24;;;3.71;94.51
77235;BME280;66253;50.526;14.974;2024-01-06T02:34:03;98022.23;;;3.70;94.32
77235;BME280;66253;50.526;14.974;2024-01-06T02:36:31;98026.27;;;3.71;94.53
77235;BME280;66253;50.526;14.974;2024-01-06T02:38:59;98026.10;;;3.71;94.62
77235;BME280;66253;50.526;14.974;2024-01-06T02:41:28;98024.39;;;3.71;94.30
77235;BME280;66253;50.526;14.974;2024-01-06T02:43:57;98021.85;;;3.71;94.68
77235;BME280;66253;50.526;14.974;2024-01-06T02:46:25;98023.38;;;3.71;94.52
77235;BME280;66253;50.526;14.974;2024-01-06T02:48:53;98021.98;;;3.72;94.77
77235;BME280;66253;50.526;14.974;2024-01-06T02:51:21;98022.81;;;3.72;94.72
77235;BME280;66253;50.526;14.974;2024-01-06T02:53:50;98021.80;;;3.72;94.75
77235;BME280;66253;50.526;14.974;2024-01-06T02:56:18;98025.00;;;3.72;94.68
77235;BME280;66253;50.526;14.974;2024-01-06T02:58:46;98024.98;;;3.73;94.91
77235;BME280;66253;50.526;14.974;2024-01-06T03:01:14;98026.13;;;3.73;94.63
77235;BME280;66253;50.526;14.974;2024-01-06T03:03:43;98026.83;;;3.73;94.99
77235;BME280;66253;50.526;14.974;2024-01-06T03:06:11;98026.13;;;3.73;94.80
77235;BME280;66253;50.526;14.974;2024-01-06T03:08:39;98025.63;;;3.73;94.86
77235;BME280;66253;50.526;14.974;2024-01-06T03:11:11;98026.61;;;3.74;94.83
77235;BME280;66253;50.526;14.974;2024-01-06T03:13:40;98026.37;;;3.76;94.97
77235;BME280;66253;50.526;14.974;2024-01-06T03:16:10;98027.48;;;3.77;95.17
77235;BME280;66253;50.526;14.974;2024-01-06T03:18:39;98027.71;;;3.80;95.17
77235;BME280;66253;50.526;14.974;2024-01-06T03:21:20;98029.67;;;3.81;94.84
77235;BME280;66253;50.526;14.974;2024-01-06T03:23:49;98030.49;;;3.82;94.87
77235;BME280;66253;50.526;14.974;2024-01-06T03:26:18;98033.88;;;3.82;94.89
77235;BME280;66253;50.526;14.974;2024-01-06T03:28:47;98034.41;;;3.81;94.80
77235;BME280;66253;50.526;14.974;2024-01-06T03:31:16;98036.64;;;3.80;94.73
77235;BME280;66253;50.526;14.974;2024-01-06T03:33:45;98038.04;;;3.79;94.79
77235;BME280;66253;50.526;14.974;2024-01-06T03:36:15;98038.08;;;3.79;94.81
77235;BME280;66253;50.526;14.974;2024-01-06T03:38:43;98037.70;;;3.79;94.92
77235;BME280;66253;50.526;14.974;2024-01-06T03:41:11;98035.14;;;3.80;94.90
77235;BME280;66253;50.526;14.974;2024-01-06T03:43:39;98030.54;;;3.81;95.28
77235;BME280;66253;50.526;14.974;2024-01-06T03:46:08;98028.17;;;3.81;95.06
77235;BME280;66253;50.526;14.974;2024-01-06T03:48:36;98032.23;;;3.81;94.95
77235;BME280;66253;50.526;14.974;2024-01-06T03:51:06;98031.04;;;3.81;94.98
77235;BME280;66253;50.526;14.974;2024-01-06T03:53:34;98027.50;;;3.81;94.91
77235;BME280;66253;50.526;14.974;2024-01-06T03:56:03;98024.79;;;3.81;94.88
77235;BME280;66253;50.526;14.974;2024-01-06T03:58:32;98025.14;;;3.80;94.75
77235;BME280;66253;50.526;14.974;2024-01-06T04:01:00;98022.42;;;3.77;94.79
77235;BME280;66253;50.526;14.974;2024-01-06T04:03:28;98021.45;;;3.76;95.06
77235;BME280;66253;50.526;14.974;2024-01-06T04:05:56;98021.33;;;3.75;94.95
77235;BME280;66253;50.526;14.974;2024-01-06T04:08:25;98026.90;;;3.75;94.95
77235;BME280;66253;50.526;14.974;2024-01-06T04:10:53;98028.18;;;3.77;95.22
77235;BME280;66253;50.526;14.974;2024-01-06T04:13:21;98030.67;;;3.78;95.20
77235;BME280;66253;50.526;14.974;2024-01-06T04:15:50;98037.54;;;3.79;95.16
77235;BME280;66253;50.526;14.974;2024-01-06T04:18:18;98039.17;;;3.80;95.17
77235;BME280;66253;50.526;14.974;2024-01-06T04:20:46;98041.14;;;3.82;94.81
77235;BME280;66253;50.526;14.974;2024-01-06T04:23:14;98044.96;;;3.83;94.95
77235;BME280;66253;50.526;14.974;2024-01-06T04:25:43;98045.91;;;3.84;94.94
77235;BME280;66253;50.526;14.974;2024-01-06T04:28:11;98044.89;;;3.84;94.98
77235;BME280;66253;50.526;14.974;2024-01-06T04:30:39;98048.09;;;3.85;95.04
77235;BME280;66253;50.526;14.974;2024-01-06T04:33:07;98049.58;;;3.85;95.20
77235;BME280;66253;50.526;14.974;2024-01-06T04:35:36;98046.11;;;3.87;95.19
77235;BME280;66253;50.526;14.974;2024-01-06T04:38:04;98049.30;;;3.87;95.18
77235;BME280;66253;50.526;14.974;2024-01-06T04:40:32;98047.14;;;3.86;95.04
77235;BME280;66253;50.526;14.974;2024-01-06T04:43:01;98046.14;;;3.86;94.99
77235;BME280;66253;50.526;14.974;2024-01-06T04:45:30;98049.02;;;3.86;95.02
77235;BME280;66253;50.526;14.974;2024-01-06T04:47:58;98048.39;;;3.85;94.87
77235;BME280;66253;50.526;14.974;2024-01-06T04:50:26;98044.27;;;3.86;95.18
77235;BME280;66253;50.526;14.974;2024-01-06T04:52:54;98044.35;;;3.88;95.53
77235;BME280;66253;50.526;14.974;2024-01-06T04:55:23;98046.54;;;3.89;95.53
77235;BME280;66253;50.526;14.974;2024-01-06T04:57:51;98041.42;;;3.90;95.31
77235;BME280;66253;50.526;14.974;2024-01-06T05:00:20;98036.97;;;3.91;95.47
77235;BME280;66253;50.526;14.974;2024-01-06T05:02:48;98034.71;;;3.92;95.60
77235;BME280;66253;50.526;14.974;2024-01-06T05:05:16;98026.67;;;3.94;95.46
77235;BME280;66253;50.526;14.974;2024-01-06T05:07:44;98023.63;;;3.94;94.97
77235;BME280;66253;50.526;14.974;2024-01-06T05:10:13;98022.16;;;3.93;94.98
77235;BME280;66253;50.526;14.974;2024-01-06T05:12:41;98019.66;;;3.92;95.09
77235;BME280;66253;50.526;14.974;2024-01-06T05:15:11;98021.66;;;3.93;95.11
77235;BME280;66253;50.526;14.974;2024-01-06T05:17:40;98021.27;;;3.94;95.09
77235;BME280;66253;50.526;14.974;2024-01-06T05:20:09;98022.28;;;3.94;95.10
77235;BME280;66253;50.526;14.974;2024-01-06T05:22:37;98026.64;;;3.95;95.33
77235;BME280;66253;50.526;14.974;2024-01-06T05:25:06;98030.83;;;3.95;95.44
77235;BME280;66253;50.526;14.974;2024-01-06T05:27:34;98037.73;;;3.96;95.14
77235;BME280;66253;50.526;14.974;2024-01-06T05:30:03;98039.33;;;3.98;95.28
77235;BME280;66253;50.526;14.974;2024-01-06T05:32:35;98041.08;;;4.00;94.94
77235;BME280;66253;50.526;14.974;2024-01-06T05:35:05;98042.20;;;4.02;94.86
77235;BME280;66253;50.526;14.974;2024-01-06T05:37:34;98047.86;;;4.03;95.16
77235;BME280;66253;50.526;14.974;2024-01-06T05:40:02;98045.84;;;4.03;94.85
77235;BME280;66253;50.526;14.974;2024-01-06T05:42:31;98047.15;;;4.00;94.50
77235;BME280;66253;50.526;14.974;2024-01-06T05:45:00;98048.39;;;3.99;94.55
77235;BME280;66253;50.526;14.974;2024-01-06T05:47:28;98051.30;;;3.98;94.52
77235;BME280;66253;50.526;14.974;2024-01-06T05:49:56;98050.48;;;3.98;94.65
77235;BME280;66253;50.526;14.974;2024-01-06T05:52:24;98053.23;;;3.97;94.69
77235;BME280;66253;50.526;14.974;2024-01-06T05:54:52;98058.46;;;3.97;94.55
77235;BME280;66253;50.526;14.974;2024-01-06T05:57:21;98063.36;;;3.97;94.54
77235;BME280;66253;50.526;14.974;2024-01-06T05:59:49;98062.52;;;3.97;94.84
77235;BME280;66253;50.526;14.974;2024-01-06T06:02:17;98071.29;;;3.97;94.98
77235;BME280;66253;50.526;14.974;2024-01-06T06:04:46;98077.87;;;3.98;94.95
77235;BME280;66253;50.526;14.974;2024-01-06T06:07:14;98078.17;;;3.98;94.95
77235;BME280;66253;50.526;14.974;2024-01-06T06:09:42;98084.37;;;3.99;95.13
77235;BME280;66253;50.526;14.974;2024-01-06T06:12:10;98085.01;;;4.00;94.68
77235;BME280;66253;50.526;14.974;2024-01-06T06:14:39;98087.54;;;4.00;94.95
77235;BME280;66253;50.526;14.974;2024-01-06T06:17:07;98091.41;;;3.97;94.46
77235;BME280;66253;50.526;14.974;2024-01-06T06:19:35;98100.83;;;3.94;94.68
77235;BME280;66253;50.526;14.974;2024-01-06T06:22:04;98104.61;;;3.93;94.91
77235;BME280;66253;50.526;14.974;2024-01-06T06:24:32;98113.64;;;3.95;94.79
77235;BME280;66253;50.526;14.974;2024-01-06T06:27:00;98116.80;;;3.96;95.13
77235;BME280;66253;50.526;14.974;2024-01-06T06:29:28;98115.24;;;3.96;94.94
77235;BME280;66253;50.526;14.974;2024-01-06T06:31:57;98119.95;;;3.97;94.75
77235;BME280;66253;50.526;14.974;2024-01-06T06:34:25;98124.62;;;3.98;94.86
77235;BME280;66253;50.526;14.974;2024-01-06T06:36:53;98127.72;;;4.01;94.81
77235;BME280;66253;50.526;14.974;2024-01-06T06:39:21;98128.55;;;4.01;94.72
77235;BME280;66253;50.526;14.974;2024-01-06T06:41:50;98125.67;;;4.02;94.75
77235;BME280;66253;50.526;14.974;2024-01-06T06:44:19;98127.80;;;4.03;94.74
77235;BME280;66253;50.526;14.974;2024-01-06T06:46:47;98131.16;;;4.03;94.65
77235;BME280;66253;50.526;14.974;2024-01-06T06:49:16;98138.58;;;4.04;94.84
77235;BME280;66253;50.526;14.974;2024-01-06T06:51:44;98141.75;;;4.05;94.89
77235;BME280;66253;50.526;14.974;2024-01-06T06:54:12;98143.97;;;4.04;94.85
77235;BME280;66253;50.526;14.974;2024-01-06T06:56:41;98149.02;;;4.05;94.93
77235;BME280;66253;50.526;14.974;2024-01-06T06:59:09;98151.02;;;4.05;95.28
77235;BME280;66253;50.526;14.974;2024-01-06T07:01:38;98154.23;;;4.05;95.08
77235;BME280;66253;50.526;14.974;2024-01-06T07:04:07;98154.92;;;4.05;95.07
77235;BME280;66253;50.526;14.974;2024-01-06T07:06:35;98153.90;;;4.05;95.11
77235;BME280;66253;50.526;14.974;2024-01-06T07:09:04;98157.11;;;4.05;95.15
77235;BME280;66253;50.526;14.974;2024-01-06T07:11:32;98152.15;;;4.06;95.06
77235;BME280;66253;50.526;14.974;2024-01-06T07:14:00;98153.61;;;4.08;95.06
77235;BME280;66253;50.526;14.974;2024-01-06T07:16:28;98153.41;;;4.08;94.98
77235;BME280;66253;50.526;14.974;2024-01-06T07:18:57;98158.78;;;4.09;94.87
77235;BME280;66253;50.526;14.974;2024-01-06T07:21:25;98158.77;;;4.09;95.09
77235;BME280;66253;50.526;14.974;2024-01-06T07:23:53;98157.40;;;4.09;95.34
77235;BME280;66253;50.526;14.974;2024-01-06T07:26:22;98153.35;;;4.09;94.96
77235;BME280;66253;50.526;14.974;2024-01-06T07:28:50;98159.22;;;4.10;95.01
77235;BME280;66253;50.526;14.974;2024-01-06T07:31:18;98165.15;;;4.10;94.63
77235;BME280;66253;50.526;14.974;2024-01-06T07:33:48;98168.76;;;4.09;94.72
77235;BME280;66253;50.526;14.974;2024-01-06T07:36:16;98170.49;;;4.08;95.06
77235;BME280;66253;50.526;14.974;2024-01-06T07:38:45;98169.98;;;4.07;94.76
77235;BME280;66253;50.526;14.974;2024-01-06T07:41:13;98175.86;;;4.09;95.02
77235;BME280;66253;50.526;14.974;2024-01-06T07:43:41;98177.88;;;4.09;95.22
77235;BME280;66253;50.526;14.974;2024-01-06T07:46:10;98180.66;;;4.11;95.37
77235;BME280;66253;50.526;14.974;2024-01-06T07:48:38;98183.48;;;4.12;95.00
77235;BME280;66253;50.526;14.974;2024-01-06T07:51:06;98179.88;;;4.13;95.39
77235;BME280;66253;50.526;14.974;2024-01-06T07:53:34;98185.92;;;4.14;95.23
77235;BME280;66253;50.526;14.974;2024-01-06T07:56:03;98188.05;;;4.15;95.65
77235;BME280;66253;50.526;14.974;2024-01-06T07:58:31;98183.65;;;4.16;95.12
77235;BME280;66253;50.526;14.974;2024-01-06T08:01:00;98185.34;;;4.15;95.47
77235;BME280;66253;50.526;14.974;2024-01-06T08:03:28;98187.55;;;4.15;95.53
77235;BME280;66253;50.526;14.974;2024-01-06T08:05:56;98190.21;;;4.16;95.36
77235;BME280;66253;50.526;14.974;2024-01-06T08:08:26;98195.41;;;4.17;95.42
77235;BME280;66253;50.526;14.974;2024-01-06T08:10:54;98198.77;;;4.17;95.08
77235;BME280;66253;50.526;14.974;2024-01-06T08:13:23;98196.74;;;4.17;95.13
77235;BME280;66253;50.526;14.974;2024-01-06T08:15:52;98198.54;;;4.19;95.30
77235;BME280;66253;50.526;14.974;2024-01-06T08:18:20;98201.66;;;4.21;95.37
77235;BME280;66253;50.526;14.974;2024-01-06T08:20:48;98203.48;;;4.21;95.12
77235;BME280;66253;50.526;14.974;2024-01-06T08:23:16;98210.65;;;4.23;95.08
77235;BME280;66253;50.526;14.974;2024-01-06T08:25:45;98215.69;;;4.24;95.31
77235;BME280;66253;50.526;14.974;2024-01-06T08:28:15;98222.08;;;4.25;95.27
77235;BME280;66253;50.526;14.974;2024-01-06T08:30:43;98219.27;;;4.24;95.24
77235;BME280;66253;50.526;14.974;2024-01-06T08:33:11;98223.02;;;4.23;94.94
77235;BME280;66253;50.526;14.974;2024-01-06T08:35:40;98227.27;;;4.22;95.46
77235;BME280;66253;50.526;14.974;2024-01-06T08:38:09;98232.96;;;4.24;95.41
77235;BME280;66253;50.526;14.974;2024-01-06T08:40:37;98233.70;;;4.26;95.33
77235;BME280;66253;50.526;14.974;2024-01-06T08:43:06;98230.59;;;4.27;95.19
77235;BME280;66253;50.526;14.974;2024-01-06T08:45:34;98232.73;;;4.29;95.52
77235;BME280;66253;50.526;14.974;2024-01-06T08:48:06;98233.80;;;4.31;95.22
77235;BME280;66253;50.526;14.974;2024-01-06T08:50:34;98232.39;;;4.32;95.36
77235;BME280;66253;50.526;14.974;2024-01-06T08:53:02;98237.67;;;4.35;95.16
77235;BME280;66253;50.526;14.974;2024-01-06T08:55:31;98236.21;;;4.37;95.00
77235;BME280;66253;50.526;14.974;2024-01-06T08:57:59;98238.03;;;4.38;94.89
77235;BME280;66253;50.526;14.974;2024-01-06T09:00:28;98238.55;;;4.41;95.42
77235;BME280;66253;50.526;14.974;2024-01-06T09:02:56;98243.33;;;4.44;94.63
77235;BME280;66253;50.526;14.974;2024-01-06T09:05:25;98240.36;;;4.46;94.72
77235;BME280;66253;50.526;14.974;2024-01-06T09:07:53;98241.27;;;4.48;95.02
77235;BME280;66253;50.526;14.974;2024-01-06T09:10:21;98244.02;;;4.52;94.60
77235;BME280;66253;50.526;14.974;2024-01-06T09:12:51;98246.02;;;4.52;95.05
77235;BME280;66253;50.526;14.974;2024-01-06T09:15:19;98246.32;;;4.53;94.93
77235;BME280;66253;50.526;14.974;2024-01-06T09:17:47;98244.09;;;4.53;94.95
77235;BME280;66253;50.526;14.974;2024-01-06T09:20:15;98244.92;;;4.54;94.86
77235;BME280;66253;50.526;14.974;2024-01-06T09:22:43;98244.13;;;4.53;94.85
77235;BME280;66253;50.526;14.974;2024-01-06T09:25:12;98244.73;;;4.54;95.22
77235;BME280;66253;50.526;14.974;2024-01-06T09:27:40;98245.39;;;4.58;95.09
77235;BME280;66253;50.526;14.974;2024-01-06T09:30:10;98244.49;;;4.63;95.22
77235;BME280;66253;50.526;14.974;2024-01-06T09:32:38;98242.23;;;4.67;95.30
77235;BME280;66253;50.526;14.974;2024-01-06T09:35:08;98240.73;;;4.71;95.04
77235;BME280;66253;50.526;14.974;2024-01-06T09:37:36;98241.44;;;4.77;94.98
77235;BME280;66253;50.526;14.974;2024-01-06T09:40:06;98242.11;;;4.81;94.66
77235;BME280;66253;50.526;14.974;2024-01-06T09:42:35;98240.90;;;4.84;94.67
77235;BME280;66253;50.526;14.974;2024-01-06T09:45:05;98239.37;;;4.88;94.50
77235;BME280;66253;50.526;14.974;2024-01-06T09:47:35;98239.50;;;4.92;94.86
77235;BME280;66253;50.526;14.974;2024-01-06T09:50:05;98240.31;;;4.97;94.67
77235;BME280;66253;50.526;14.974;2024-01-06T09:52:34;98246.42;;;5.00;94.21
77235;BME280;66253;50.526;14.974;2024-01-06T09:55:10;98244.89;;;5.01;94.03
77235;BME280;66253;50.526;14.974;2024-01-06T09:57:39;98247.88;;;5.02;94.22
77235;BME280;66253;50.526;14.974;2024-01-06T10:00:11;98248.86;;;5.02;94.20
77235;BME280;66253;50.526;14.974;2024-01-06T10:02:40;98246.07;;;5.04;93.78
77235;BME280;66253;50.526;14.974;2024-01-06T10:05:12;98247.10;;;5.07;94.46
77235;BME280;66253;50.526;14.974;2024-01-06T10:07:42;98247.73;;;5.11;93.85
77235;BME280;66253;50.526;14.974;2024-01-06T10:10:09;98247.98;;;5.13;93.92
77235;BME280;66253;50.526;14.974;2024-01-06T10:12:39;98250.64;;;5.18;93.84
77235;BME280;66253;50.526;14.974;2024-01-06T10:15:07;98250.77;;;5.18;93.98
77235;BME280;66253;50.526;14.974;2024-01-06T10:17:37;98250.16;;;5.24;93.85
77235;BME280;66253;50.526;14.974;2024-01-06T10:20:07;98250.52;;;5.27;93.98
77235;BME280;66253;50.526;14.974;2024-01-06T10:22:37;98247.52;;;5.33;94.01
77235;BME280;66253;50.526;14.974;2024-01-06T10:25:07;98247.49;;;5.36;93.92
77235;BME280;66253;50.526;14.974;2024-01-06T10:27:35;98246.26;;;5.41;94.04
77235;BME280;66253;50.526;14.974;2024-01-06T10:30:03;98246.02;;;5.46;93.84
77235;BME280;66253;50.526;14.974;2024-01-06T10:32:33;98240.92;;;5.49;93.93
77235;BME280;66253;50.526;14.974;2024-01-06T10:35:02;98240.03;;;5.50;93.77
77235;BME280;66253;50.526;14.974;2024-01-06T10:37:31;98236.79;;;5.51;93.51
77235;BME280;66253;50.526;14.974;2024-01-06T10:40:14;98238.49;;;5.54;93.80
77235;BME280;66253;50.526;14.974;2024-01-06T10:42:43;98239.34;;;5.57;93.41
77235;BME280;66253;50.526;14.974;2024-01-06T10:45:13;98237.19;;;5.59;93.60
77235;BME280;66253;50.526;14.974;2024-01-06T10:47:43;98238.43;;;5.61;93.51
77235;BME280;66253;50.526;14.974;2024-01-06T10:50:12;98238.48;;;5.64;93.71
77235;BME280;66253;50.526;14.974;2024-01-06T10:52:42;98235.16;;;5.66;93.39
77235;BME280;66253;50.526;14.974;2024-01-06T10:55:11;98233.00;;;5.69;93.64
77235;BME280;66253;50.526;14.974;2024-01-06T10:57:44;98234.75;;;5.71;93.42
77235;BME280;66253;50.526;14.974;2024-01-06T11:00:14;98231.13;;;5.72;93.56
77235;BME280;66253;50.526;14.974;2024-01-06T11:02:43;98233.98;;;5.75;93.23
77235;BME280;66253;50.526;14.974;2024-01-06T11:05:12;98232.97;;;5.75;93.32
77235;BME280;66253;50.526;14.974;2024-01-06T11:07:42;98232.02;;;5.78;93.30
77235;BME280;66253;50.526;14.974;2024-01-06T11:10:14;98230.90;;;5.79;93.23
77235;BME280;66253;50.526;14.974;2024-01-06T11:12:43;98226.20;;;5.78;93.40
77235;BME280;66253;50.526;14.974;2024-01-06T11:15:12;98224.58;;;5.81;93.51
77235;BME280;66253;50.526;14.974;2024-01-06T11:18:02;98220.23;;;5.82;93.53
77235;BME280;66253;50.526;14.974;2024-01-06T11:20:31;98212.21;;;5.83;93.40
77235;BME280;66253;50.526;14.974;2024-01-06T11:23:18;98209.84;;;5.87;93.32
77235;BME280;66253;50.526;14.974;2024-01-06T11:25:47;98210.14;;;5.91;93.58
77235;BME280;66253;50.526;14.974;2024-01-06T11:28:17;98213.38;;;5.94;93.69
77235;BME280;66253;50.526;14.974;2024-01-06T11:31:06;98205.77;;;5.97;93.56
77235;BME280;66253;50.526;14.974;2024-01-06T11:33:42;98205.24;;;6.00;93.68
77235;BME280;66253;50.526;14.974;2024-01-06T11:36:11;98207.07;;;6.05;93.47
77235;BME280;66253;50.526;14.974;2024-01-06T11:38:42;98206.35;;;6.08;93.32
77235;BME280;66253;50.526;14.974;2024-01-06T11:41:47;98207.61;;;6.13;93.22
77235;BME280;66253;50.526;14.974;2024-01-06T11:44:19;98204.48;;;6.18;93.08
77235;BME280;66253;50.526;14.974;2024-01-06T11:46:48;98206.48;;;6.21;93.04
77235;BME280;66253;50.526;14.974;2024-01-06T11:49:21;98208.08;;;6.23;93.19
77235;BME280;66253;50.526;14.974;2024-01-06T11:51:54;98210.29;;;6.26;93.16
77235;BME280;66253;50.526;14.974;2024-01-06T11:54:23;98208.30;;;6.28;92.93
77235;BME280;66253;50.526;14.974;2024-01-06T11:56:51;98209.52;;;6.31;92.85
77235;BME280;66253;50.526;14.974;2024-01-06T11:59:20;98209.61;;;6.33;92.60
77235;BME280;66253;50.526;14.974;2024-01-06T12:01:48;98212.02;;;6.35;92.53
77235;BME280;66253;50.526;14.974;2024-01-06T12:04:16;98211.10;;;6.37;92.48
77235;BME280;66253;50.526;14.974;2024-01-06T12:06:45;98211.89;;;6.38;92.36
77235;BME280;66253;50.526;14.974;2024-01-06T12:09:14;98215.36;;;6.39;92.12
77235;BME280;66253;50.526;14.974;2024-01-06T12:11:44;98220.87;;;6.41;91.89
77235;BME280;66253;50.526;14.974;2024-01-06T12:14:13;98220.73;;;6.43;91.82
77235;BME280;66253;50.526;14.974;2024-01-06T12:16:41;98213.84;;;6.46;91.81
77235;BME280;66253;50.526;14.974;2024-01-06T12:19:10;98211.98;;;6.48;91.60
77235;BME280;66253;50.526;14.974;2024-01-06T12:21:39;98211.30;;;6.51;91.81
77235;BME280;66253;50.526;14.974;2024-01-06T12:24:16;98213.63;;;6.52;91.73
77235;BME280;66253;50.526;14.974;2024-01-06T12:26:45;98211.88;;;6.53;91.81
77235;BME280;66253;50.526;14.974;2024-01-06T12:29:14;98212.73;;;6.53;91.73
77235;BME280;66253;50.526;14.974;2024-01-06T12:31:44;98214.96;;;6.56;91.81
77235;BME280;66253;50.526;14.974;2024-01-06T12:34:12;98216.69;;;6.58;91.81
77235;BME280;66253;50.526;14.974;2024-01-06T12:36:41;98221.96;;;6.58;91.72
77235;BME280;66253;50.526;14.974;2024-01-06T12:39:13;98221.39;;;6.59;91.72
77235;BME280;66253;50.526;14.974;2024-01-06T12:41:42;98221.83;;;6.60;91.58
77235;BME280;66253;50.526;14.974;2024-01-06T12:44:10;98216.70;;;6.61;91.59
77235;BME280;66253;50.526;14.974;2024-01-06T12:46:39;98217.16;;;6.59;91.36
77235;BME280;66253;50.526;14.974;2024-01-06T12:49:10;98219.55;;;6.58;91.36
77235;BME280;66253;50.526;14.974;2024-01-06T12:51:38;98217.31;;;6.59;91.32
77235;BME280;66253;50.526;14.974;2024-01-06T12:54:07;98213.72;;;6.60;91.31
77235;BME280;66253;50.526;14.974;2024-01-06T12:56:36;98210.39;;;6.61;91.51
77235;BME280;66253;50.526;14.974;2024-01-06T12:59:04;98210.48;;;6.63;91.64
77235;BME280;66253;50.526;14.974;2024-01-06T13:01:33;98211.77;;;6.64;91.44
77235;BME280;66253;50.526;14.974;2024-01-06T13:04:01;98212.48;;;6.64;91.57
77235;BME280;66253;50.526;14.974;2024-01-06T13:06:29;98208.31;;;6.63;91.57
77235;BME280;66253;50.526;14.974;2024-01-06T13:08:58;98207.54;;;6.61;91.49